sensor_id;sensor_type;location;lat;lon;timestamp;pressure;altitude;pressure_sealevel;temperature;humidity
64292;BME280;50628;51.008;13.658;2023-03-15T00:02:27;99001.53;;;2.53;100.00
64292;BME280;50628;51.008;13.658;2023-03-15T00:07:30;99017.00;;;1.92;100.00
64292;BME280;50628;51.008;13.658;2023-03-15T00:12:32;99019.19;;;2.29;100.00
64292;BME280;50628;51.008;13.658;2023-03-15T00:17:34;99033.66;;;2.15;100.00
64292;BME280;50628;51.008;13.658;2023-03-15T00:22:37;99026.47;;;2.06;100.00
64292;BME280;50628;51.008;13.658;2023-03-15T00:27:39;99036.00;;;1.74;100.00
64292;BME280;50628;51.008;13.658;2023-03-15T00:32:41;99038.34;;;1.47;100.00
64292;BME280;50628;51.008;13.658;2023-03-15T00:37:45;99058.25;;;1.10;100.00
64292;BME280;50628;51.008;13.658;2023-03-15T00:42:47;99066.53;;;1.47;100.00
64292;BME280;50628;51.008;13.658;2023-03-15T00:47:50;99065.88;;;1.75;100.00
64292;BME280;50628;51.008;13.658;2023-03-15T00:52:55;99071.22;;;1.86;100.00
64292;BME280;50628;51.008;13.658;2023-03-15T00:57:57;99082.09;;;0.95;100.00
64292;BME280;50628;51.008;13.658;2023-03-15T01:02:59;99085.47;;;1.28;100.00
64292;BME280;50628;51.008;13.658;2023-03-15T01:08:03;99087.94;;;1.46;100.00
64292;BME280;50628;51.008;13.658;2023-03-15T01:13:05;99093.22;;;1.11;100.00
64292;BME280;50628;51.008;13.658;2023-03-15T01:18:07;99099.47;;;1.05;100.00
64292;BME280;50628;51.008;13.658;2023-03-15T01:23:10;99105.25;;;1.26;100.00
64292;BME280;50628;51.008;13.658;2023-03-15T01:28:13;99104.25;;;0.96;100.00
64292;BME280;50628;51.008;13.658;2023-03-15T01:33:16;99104.31;;;1.12;100.00
64292;BME280;50628;51.008;13.658;2023-03-15T01:38:19;99115.25;;;0.98;100.00
64292;BME280;50628;51.008;13.658;2023-03-15T01:43:22;99111.84;;;0.81;100.00
64292;BME280;50628;51.008;13.658;2023-03-15T01:48:29;99121.38;;;0.78;100.00
64292;BME280;50628;51.008;13.658;2023-03-15T01:53:35;99123.91;;;0.62;100.00
64292;BME280;50628;51.008;13.658;2023-03-15T01:58:39;99129.16;;;0.76;100.00
64292;BME280;50628;51.008;13.658;2023-03-15T02:03:44;99122.91;;;0.82;100.00
64292;BME280;50628;51.008;13.658;2023-03-15T02:08:52;99125.00;;;1.24;100.00
64292;BME280;50628;51.008;13.658;2023-03-15T02:13:56;99116.31;;;0.43;100.00
64292;BME280;50628;51.008;13.658;2023-03-15T02:19:00;99120.56;;;0.60;100.00
64292;BME280;50628;51.008;13.658;2023-03-15T02:24:12;99117.72;;;0.83;100.00
64292;BME280;50628;51.008;13.658;2023-03-15T02:29:23;99121.69;;;0.89;100.00
64292;BME280;50628;51.008;13.658;2023-03-15T02:34:26;99134.78;;;0.83;100.00
64292;BME280;50628;51.008;13.658;2023-03-15T02:39:28;99138.81;;;1.22;100.00
64292;BME280;50628;51.008;13.658;2023-03-15T02:44:34;99142.63;;;0.45;100.00
64292;BME280;50628;51.008;13.658;2023-03-15T02:49:39;99153.81;;;0.61;100.00
64292;BME280;50628;51.008;13.658;2023-03-15T02:54:42;99148.06;;;0.91;100.00
64292;BME280;50628;51.008;13.658;2023-03-15T02:59:46;99151.59;;;1.06;100.00
64292;BME280;50628;51.008;13.658;2023-03-15T03:04:50;99154.78;;;1.27;100.00
64292;BME280;50628;51.008;13.658;2023-03-15T03:09:53;99164.66;;;0.84;100.00
64292;BME280;50628;51.008;13.658;2023-03-15T03:14:57;99172.63;;;0.78;100.00
64292;BME280;50628;51.008;13.658;2023-03-15T03:19:59;99198.38;;;0.57;100.00
64292;BME280;50628;51.008;13.658;2023-03-15T03:25:08;99198.47;;;0.56;100.00
64292;BME280;50628;51.008;13.658;2023-03-15T03:30:13;99213.13;;;0.52;100.00
64292;BME280;50628;51.008;13.658;2023-03-15T03:35:21;99211.25;;;0.19;100.00
64292;BME280;50628;51.008;13.658;2023-03-15T03:40:23;99223.38;;;0.16;100.00
64292;BME280;50628;51.008;13.658;2023-03-15T03:45:27;99220.31;;;0.46;100.00
64292;BME280;50628;51.008;13.658;2023-03-15T03:50:32;99235.66;;;0.63;100.00
64292;BME280;50628;51.008;13.658;2023-03-15T03:55:34;99228.88;;;0.45;100.00
64292;BME280;50628;51.008;13.658;2023-03-15T04:00:37;99232.91;;;0.12;100.00
64292;BME280;50628;51.008;13.658;2023-03-15T04:05:41;99236.19;;;-0.03;100.00
64292;BME280;50628;51.008;13.658;2023-03-15T04:10:48;99247.59;;;0.09;100.00
64292;BME280;50628;51.008;13.658;2023-03-15T04:15:52;99254.88;;;0.18;100.00
64292;BME280;50628;51.008;13.658;2023-03-15T04:20:58;99260.44;;;0.26;100.00
64292;BME280;50628;51.008;13.658;2023-03-15T04:26:00;99269.41;;;0.35;100.00
64292;BME280;50628;51.008;13.658;2023-03-15T04:31:33;99272.59;;;0.59;100.00
64292;BME280;50628;51.008;13.658;2023-03-15T04:37:00;99276.16;;;0.74;100.00
64292;BME280;50628;51.008;13.658;2023-03-15T04:42:20;99292.59;;;0.87;100.00
64292;BME280;50628;51.008;13.658;2023-03-15T04:47:40;99301.91;;;0.88;100.00
64292;BME280;50628;51.008;13.658;2023-03-15T04:53:01;99304.81;;;0.99;100.00
64292;BME280;50628;51.008;13.658;2023-03-15T04:58:23;99309.59;;;0.88;100.00
64292;BME280;50628;51.008;13.658;2023-03-15T05:03:52;99323.31;;;1.06;100.00
64292;BME280;50628;51.008;13.658;2023-03-15T05:09:14;99331.81;;;1.06;100.00
64292;BME280;50628;51.008;13.658;2023-03-15T05:14:38;99341.16;;;0.71;100.00
64292;BME280;50628;51.008;13.658;2023-03-15T05:20:02;99343.28;;;0.80;100.00
64292;BME280;50628;51.008;13.658;2023-03-15T05:25:37;99346.09;;;0.93;100.00
64292;BME280;50628;51.008;13.658;2023-03-15T05:30:41;99350.19;;;0.97;100.00
64292;BME280;50628;51.008;13.658;2023-03-15T05:36:05;99358.84;;;0.95;100.00
64292;BME280;50628;51.008;13.658;2023-03-15T05:41:31;99363.63;;;1.20;100.00
64292;BME280;50628;51.008;13.658;2023-03-15T05:46:51;99382.75;;;1.13;100.00
64292;BME280;50628;51.008;13.658;2023-03-15T05:52:24;99387.84;;;1.14;100.00
64292;BME280;50628;51.008;13.658;2023-03-15T05:57:44;99407.28;;;1.18;100.00
64292;BME280;50628;51.008;13.658;2023-03-15T06:02:57;99417.25;;;1.24;100.00
64292;BME280;50628;51.008;13.658;2023-03-15T06:08:13;99423.34;;;1.22;100.00
64292;BME280;50628;51.008;13.658;2023-03-15T06:13:18;99418.38;;;1.19;100.00
64292;BME280;50628;51.008;13.658;2023-03-15T06:18:21;99436.09;;;1.23;100.00
64292;BME280;50628;51.008;13.658;2023-03-15T06:23:25;99447.50;;;1.35;100.00
64292;BME280;50628;51.008;13.658;2023-03-15T06:28:27;99448.19;;;1.39;100.00
64292;BME280;50628;51.008;13.658;2023-03-15T06:33:32;99447.06;;;1.44;100.00
64292;BME280;50628;51.008;13.658;2023-03-15T06:38:36;99446.91;;;1.47;100.00
64292;BME280;50628;51.008;13.658;2023-03-15T06:43:39;99444.97;;;1.70;100.00
64292;BME280;50628;51.008;13.658;2023-03-15T06:48:41;99465.06;;;1.79;100.00
64292;BME280;50628;51.008;13.658;2023-03-15T06:53:46;99469.66;;;1.90;100.00
64292;BME280;50628;51.008;13.658;2023-03-15T06:58:48;99464.69;;;2.04;100.00
64292;BME280;50628;51.008;13.658;2023-03-15T07:03:50;99469.06;;;2.20;100.00
64292;BME280;50628;51.008;13.658;2023-03-15T07:08:53;99476.28;;;2.29;100.00
64292;BME280;50628;51.008;13.658;2023-03-15T07:13:55;99472.28;;;2.56;100.00
64292;BME280;50628;51.008;13.658;2023-03-15T07:18:58;99473.00;;;2.76;100.00
64292;BME280;50628;51.008;13.658;2023-03-15T07:24:01;99466.97;;;2.93;100.00
64292;BME280;50628;51.008;13.658;2023-03-15T07:29:03;99474.25;;;3.16;100.00
64292;BME280;50628;51.008;13.658;2023-03-15T07:34:05;99484.88;;;3.42;100.00
64292;BME280;50628;51.008;13.658;2023-03-15T07:39:08;99485.44;;;3.47;100.00
64292;BME280;50628;51.008;13.658;2023-03-15T07:44:11;99492.16;;;3.50;100.00
64292;BME280;50628;51.008;13.658;2023-03-15T07:49:13;99488.91;;;3.62;100.00
64292;BME280;50628;51.008;13.658;2023-03-15T07:54:16;99490.19;;;3.85;100.00
64292;BME280;50628;51.008;13.658;2023-03-15T07:59:18;99488.34;;;3.87;100.00
64292;BME280;50628;51.008;13.658;2023-03-15T08:04:20;99499.78;;;3.97;100.00
64292;BME280;50628;51.008;13.658;2023-03-15T08:09:24;99500.53;;;3.99;100.00
64292;BME280;50628;51.008;13.658;2023-03-15T08:14:26;99506.44;;;4.16;100.00
64292;BME280;50628;51.008;13.658;2023-03-15T08:19:28;99521.09;;;4.29;100.00
64292;BME280;50628;51.008;13.658;2023-03-15T08:24:32;99526.75;;;4.50;100.00
64292;BME280;50628;51.008;13.658;2023-03-15T08:29:34;99523.88;;;4.26;91.78
64292;BME280;50628;51.008;13.658;2023-03-15T08:34:35;99537.50;;;4.28;96.22
64292;BME280;50628;51.008;13.658;2023-03-15T08:39:39;99530.09;;;4.22;100.00
64292;BME280;50628;51.008;13.658;2023-03-15T08:44:41;99532.00;;;4.04;100.00
64292;BME280;50628;51.008;13.658;2023-03-15T08:49:43;99546.81;;;4.01;100.00
64292;BME280;50628;51.008;13.658;2023-03-15T08:54:46;99546.69;;;4.02;100.00
64292;BME280;50628;51.008;13.658;2023-03-15T08:59:48;99596.81;;;2.67;100.00
64292;BME280;50628;51.008;13.658;2023-03-15T09:04:50;99593.41;;;1.97;100.00
64292;BME280;50628;51.008;13.658;2023-03-15T09:09:53;99589.13;;;2.14;100.00
64292;BME280;50628;51.008;13.658;2023-03-15T09:14:55;99578.69;;;2.17;100.00
64292;BME280;50628;51.008;13.658;2023-03-15T09:19:57;99587.69;;;2.61;100.00
64292;BME280;50628;51.008;13.658;2023-03-15T09:25:00;99582.78;;;2.90;100.00
64292;BME280;50628;51.008;13.658;2023-03-15T09:30:03;99582.28;;;3.16;100.00
64292;BME280;50628;51.008;13.658;2023-03-15T09:35:07;99587.94;;;3.55;100.00
64292;BME280;50628;51.008;13.658;2023-03-15T09:40:18;99583.31;;;3.61;100.00
64292;BME280;50628;51.008;13.658;2023-03-15T09:45:26;99587.22;;;3.68;100.00
64292;BME280;50628;51.008;13.658;2023-03-15T09:50:31;99598.06;;;3.89;100.00
64292;BME280;50628;51.008;13.658;2023-03-15T09:55:38;99596.56;;;3.85;100.00
64292;BME280;50628;51.008;13.658;2023-03-15T10:00:43;99613.91;;;3.98;100.00
64292;BME280;50628;51.008;13.658;2023-03-15T10:05:48;99615.91;;;3.93;100.00
64292;BME280;50628;51.008;13.658;2023-03-15T10:11:00;99613.25;;;3.62;100.00
64292;BME280;50628;51.008;13.658;2023-03-15T10:16:14;99619.09;;;3.66;100.00
64292;BME280;50628;51.008;13.658;2023-03-15T10:21:28;99624.13;;;3.67;100.00
64292;BME280;50628;51.008;13.658;2023-03-15T10:26:36;99631.03;;;3.83;100.00
64292;BME280;50628;51.008;13.658;2023-03-15T10:31:43;99632.94;;;3.79;100.00
64292;BME280;50628;51.008;13.658;2023-03-15T10:36:48;99640.50;;;3.51;100.00
64292;BME280;50628;51.008;13.658;2023-03-15T10:41:55;99642.72;;;3.57;100.00
64292;BME280;50628;51.008;13.658;2023-03-15T10:47:02;99643.25;;;3.63;100.00
64292;BME280;50628;51.008;13.658;2023-03-15T10:52:22;99646.22;;;3.56;100.00
64292;BME280;50628;51.008;13.658;2023-03-15T10:57:27;99642.00;;;3.71;100.00
64292;BME280;50628;51.008;13.658;2023-03-15T11:02:33;99644.00;;;3.81;100.00
64292;BME280;50628;51.008;13.658;2023-03-15T11:07:35;99643.22;;;3.95;100.00
64292;BME280;50628;51.008;13.658;2023-03-15T11:12:39;99637.50;;;4.06;100.00
64292;BME280;50628;51.008;13.658;2023-03-15T11:17:42;99652.72;;;3.95;100.00
64292;BME280;50628;51.008;13.658;2023-03-15T11:22:45;99648.03;;;3.85;100.00
64292;BME280;50628;51.008;13.658;2023-03-15T11:27:48;99649.47;;;3.75;100.00
64292;BME280;50628;51.008;13.658;2023-03-15T11:32:53;99661.19;;;3.81;100.00
64292;BME280;50628;51.008;13.658;2023-03-15T11:37:57;99658.44;;;3.68;100.00
64292;BME280;50628;51.008;13.658;2023-03-15T11:43:07;99666.31;;;3.49;100.00
64292;BME280;50628;51.008;13.658;2023-03-15T11:48:15;99662.63;;;3.37;100.00
64292;BME280;50628;51.008;13.658;2023-03-15T11:53:20;99650.72;;;3.68;100.00
64292;BME280;50628;51.008;13.658;2023-03-15T11:58:31;99650.91;;;3.81;100.00
64292;BME280;50628;51.008;13.658;2023-03-15T12:03:38;99641.16;;;4.02;100.00
64292;BME280;50628;51.008;13.658;2023-03-15T12:08:43;99637.22;;;4.26;100.00
64292;BME280;50628;51.008;13.658;2023-03-15T12:13:53;99642.84;;;4.49;100.00
64292;BME280;50628;51.008;13.658;2023-03-15T12:19:09;99635.03;;;4.65;100.00
64292;BME280;50628;51.008;13.658;2023-03-15T12:24:15;99638.22;;;4.98;100.00
64292;BME280;50628;51.008;13.658;2023-03-15T12:29:25;99637.53;;;4.66;100.00
64292;BME280;50628;51.008;13.658;2023-03-15T12:34:47;99642.09;;;4.91;100.00
64292;BME280;50628;51.008;13.658;2023-03-15T12:39:53;99646.97;;;4.51;100.00
64292;BME280;50628;51.008;13.658;2023-03-15T12:45:38;99647.31;;;4.45;100.00
64292;BME280;50628;51.008;13.658;2023-03-15T12:50:49;99651.53;;;4.00;100.00
64292;BME280;50628;51.008;13.658;2023-03-15T12:55:53;99650.81;;;3.98;100.00
64292;BME280;50628;51.008;13.658;2023-03-15T13:00:56;99654.88;;;3.86;100.00
64292;BME280;50628;51.008;13.658;2023-03-15T13:06:06;99658.78;;;3.94;100.00
64292;BME280;50628;51.008;13.658;2023-03-15T13:11:16;99656.50;;;4.19;100.00
64292;BME280;50628;51.008;13.658;2023-03-15T13:16:27;99642.81;;;4.19;100.00
64292;BME280;50628;51.008;13.658;2023-03-15T13:21:33;99649.69;;;4.34;100.00
64292;BME280;50628;51.008;13.658;2023-03-15T13:26:51;99655.53;;;4.82;100.00
64292;BME280;50628;51.008;13.658;2023-03-15T13:32:02;99653.22;;;5.78;100.00
64292;BME280;50628;51.008;13.658;2023-03-15T13:37:14;99645.41;;;6.74;100.00
64292;BME280;50628;51.008;13.658;2023-03-15T13:42:20;99651.28;;;6.63;100.00
64292;BME280;50628;51.008;13.658;2023-03-15T13:47:25;99670.28;;;6.22;100.00
64292;BME280;50628;51.008;13.658;2023-03-15T13:52:27;99667.88;;;6.46;99.16
64292;BME280;50628;51.008;13.658;2023-03-15T13:57:30;99673.59;;;6.24;100.00
64292;BME280;50628;51.008;13.658;2023-03-15T14:02:35;99670.47;;;5.77;100.00
64292;BME280;50628;51.008;13.658;2023-03-15T14:07:39;99670.28;;;5.66;100.00
64292;BME280;50628;51.008;13.658;2023-03-15T14:12:45;99678.50;;;5.44;100.00
64292;BME280;50628;51.008;13.658;2023-03-15T14:17:53;99681.44;;;5.24;100.00
64292;BME280;50628;51.008;13.658;2023-03-15T14:23:00;99686.59;;;5.67;100.00
64292;BME280;50628;51.008;13.658;2023-03-15T14:28:03;99684.59;;;6.27;100.00
64292;BME280;50628;51.008;13.658;2023-03-15T14:33:22;99690.94;;;5.66;100.00
64292;BME280;50628;51.008;13.658;2023-03-15T14:38:29;99692.06;;;5.48;100.00
64292;BME280;50628;51.008;13.658;2023-03-15T14:43:33;99701.09;;;5.98;100.00
64292;BME280;50628;51.008;13.658;2023-03-15T14:48:36;99687.00;;;5.60;100.00
64292;BME280;50628;51.008;13.658;2023-03-15T14:53:38;99692.22;;;6.29;100.00
64292;BME280;50628;51.008;13.658;2023-03-15T14:58:40;99687.69;;;6.05;95.31
64292;BME280;50628;51.008;13.658;2023-03-15T15:03:45;99692.03;;;5.76;95.42
64292;BME280;50628;51.008;13.658;2023-03-15T15:08:51;99697.84;;;5.94;100.00
64292;BME280;50628;51.008;13.658;2023-03-15T15:13:55;99704.06;;;6.19;81.48
64292;BME280;50628;51.008;13.658;2023-03-15T15:18:58;99702.16;;;5.79;83.42
64292;BME280;50628;51.008;13.658;2023-03-15T15:24:01;99705.16;;;5.59;84.12
64292;BME280;50628;51.008;13.658;2023-03-15T15:29:03;99711.88;;;5.33;85.73
64292;BME280;50628;51.008;13.658;2023-03-15T15:34:07;99713.91;;;5.28;81.52
64292;BME280;50628;51.008;13.658;2023-03-15T15:39:21;99721.34;;;5.18;82.62
64292;BME280;50628;51.008;13.658;2023-03-15T15:44:23;99729.47;;;5.12;78.74
64292;BME280;50628;51.008;13.658;2023-03-15T15:49:27;99735.38;;;5.28;77.93
64292;BME280;50628;51.008;13.658;2023-03-15T15:54:29;99730.69;;;5.35;76.26
64292;BME280;50628;51.008;13.658;2023-03-15T15:59:34;99736.94;;;5.31;78.87
64292;BME280;50628;51.008;13.658;2023-03-15T16:04:37;99745.25;;;5.36;76.78
64292;BME280;50628;51.008;13.658;2023-03-15T16:09:40;99755.38;;;5.25;77.71
64292;BME280;50628;51.008;13.658;2023-03-15T16:14:43;99763.00;;;5.12;76.62
64292;BME280;50628;51.008;13.658;2023-03-15T16:19:46;99774.91;;;4.98;79.46
64292;BME280;50628;51.008;13.658;2023-03-15T16:24:51;99774.47;;;4.92;83.97
64292;BME280;50628;51.008;13.658;2023-03-15T16:29:54;99782.25;;;4.90;89.88
64292;BME280;50628;51.008;13.658;2023-03-15T16:34:59;99789.38;;;4.71;92.95
64292;BME280;50628;51.008;13.658;2023-03-15T16:40:01;99795.16;;;4.90;98.94
64292;BME280;50628;51.008;13.658;2023-03-15T16:45:11;99800.59;;;4.70;100.00
64292;BME280;50628;51.008;13.658;2023-03-15T16:50:16;99809.09;;;4.56;100.00
64292;BME280;50628;51.008;13.658;2023-03-15T16:55:22;99812.91;;;4.33;100.00
64292;BME280;50628;51.008;13.658;2023-03-15T17:00:24;99828.22;;;4.36;100.00
64292;BME280;50628;51.008;13.658;2023-03-15T17:05:27;99836.09;;;4.33;100.00
64292;BME280;50628;51.008;13.658;2023-03-15T17:10:30;99841.59;;;4.27;100.00
64292;BME280;50628;51.008;13.658;2023-03-15T17:15:33;99846.16;;;4.22;100.00
64292;BME280;50628;51.008;13.658;2023-03-15T17:20:36;99861.47;;;3.92;100.00
64292;BME280;50628;51.008;13.658;2023-03-15T17:25:38;99871.94;;;3.71;100.00
64292;BME280;50628;51.008;13.658;2023-03-15T17:30:40;99880.09;;;3.79;100.00
64292;BME280;50628;51.008;13.658;2023-03-15T17:35:47;99897.50;;;3.74;100.00
64292;BME280;50628;51.008;13.658;2023-03-15T17:40:53;99907.38;;;3.66;100.00
64292;BME280;50628;51.008;13.658;2023-03-15T17:45:55;99908.25;;;3.65;100.00
64292;BME280;50628;51.008;13.658;2023-03-15T17:50:58;99928.41;;;3.57;100.00
64292;BME280;50628;51.008;13.658;2023-03-15T17:56:00;99927.25;;;3.62;100.00
64292;BME280;50628;51.008;13.658;2023-03-15T18:01:02;99938.41;;;3.27;100.00
64292;BME280;50628;51.008;13.658;2023-03-15T18:06:06;99949.16;;;3.35;100.00
64292;BME280;50628;51.008;13.658;2023-03-15T18:11:14;99949.06;;;3.38;100.00
64292;BME280;50628;51.008;13.658;2023-03-15T18:16:17;99963.59;;;3.20;100.00
64292;BME280;50628;51.008;13.658;2023-03-15T18:21:23;99969.38;;;3.06;100.00
64292;BME280;50628;51.008;13.658;2023-03-15T18:26:25;99973.41;;;2.74;100.00
64292;BME280;50628;51.008;13.658;2023-03-15T18:31:27;99974.22;;;2.74;100.00
64292;BME280;50628;51.008;13.658;2023-03-15T18:36:30;99970.41;;;2.64;100.00
64292;BME280;50628;51.008;13.658;2023-03-15T18:41:32;99980.47;;;2.69;100.00
64292;BME280;50628;51.008;13.658;2023-03-15T18:46:34;99981.25;;;2.90;100.00
64292;BME280;50628;51.008;13.658;2023-03-15T18:51:43;99978.91;;;2.85;100.00
64292;BME280;50628;51.008;13.658;2023-03-15T18:56:45;99993.66;;;2.61;100.00
64292;BME280;50628;51.008;13.658;2023-03-15T19:01:46;99996.97;;;2.24;100.00
64292;BME280;50628;51.008;13.658;2023-03-15T19:06:50;99993.25;;;2.10;100.00
64292;BME280;50628;51.008;13.658;2023-03-15T19:11:52;100006.38;;;2.04;100.00
64292;BME280;50628;51.008;13.658;2023-03-15T19:16:53;100007.38;;;2.00;100.00
64292;BME280;50628;51.008;13.658;2023-03-15T19:21:58;100016.78;;;1.79;100.00
64292;BME280;50628;51.008;13.658;2023-03-15T19:27:00;100032.53;;;1.70;100.00
64292;BME280;50628;51.008;13.658;2023-03-15T19:32:03;100038.25;;;1.33;100.00
64292;BME280;50628;51.008;13.658;2023-03-15T19:37:07;100042.56;;;1.32;100.00
64292;BME280;50628;51.008;13.658;2023-03-15T19:42:09;100044.59;;;1.46;100.00
64292;BME280;50628;51.008;13.658;2023-03-15T19:47:11;100047.44;;;1.16;100.00
64292;BME280;50628;51.008;13.658;2023-03-15T19:52:14;100057.69;;;1.16;100.00
64292;BME280;50628;51.008;13.658;2023-03-15T19:57:16;100062.97;;;1.12;100.00
64292;BME280;50628;51.008;13.658;2023-03-15T20:02:18;100071.09;;;0.99;100.00
64292;BME280;50628;51.008;13.658;2023-03-15T20:07:21;100081.09;;;0.82;100.00
64292;BME280;50628;51.008;13.658;2023-03-15T20:12:23;100081.09;;;0.82;100.00
64292;BME280;50628;51.008;13.658;2023-03-15T20:17:25;100083.28;;;0.93;100.00
64292;BME280;50628;51.008;13.658;2023-03-15T20:22:29;100088.91;;;0.79;100.00
64292;BME280;50628;51.008;13.658;2023-03-15T20:27:32;100084.88;;;0.47;100.00
64292;BME280;50628;51.008;13.658;2023-03-15T20:32:34;100094.06;;;1.02;100.00
64292;BME280;50628;51.008;13.658;2023-03-15T20:37:37;100106.09;;;1.00;100.00
64292;BME280;50628;51.008;13.658;2023-03-15T20:42:42;100113.53;;;0.83;100.00
64292;BME280;50628;51.008;13.658;2023-03-15T20:47:43;100127.44;;;0.51;100.00
64292;BME280;50628;51.008;13.658;2023-03-15T20:52:47;100132.84;;;0.68;100.00
64292;BME280;50628;51.008;13.658;2023-03-15T20:57:49;100137.72;;;0.76;100.00
64292;BME280;50628;51.008;13.658;2023-03-15T21:02:51;100133.56;;;1.20;100.00
64292;BME280;50628;51.008;13.658;2023-03-15T21:07:55;100153.53;;;1.12;100.00
64292;BME280;50628;51.008;13.658;2023-03-15T21:12:57;100147.63;;;0.85;100.00
64292;BME280;50628;51.008;13.658;2023-03-15T21:17:59;100153.53;;;0.87;100.00
64292;BME280;50628;51.008;13.658;2023-03-15T21:23:02;100157.19;;;0.80;100.00
64292;BME280;50628;51.008;13.658;2023-03-15T21:28:04;100160.91;;;0.71;100.00
64292;BME280;50628;51.008;13.658;2023-03-15T21:33:06;100167.81;;;0.69;100.00
64292;BME280;50628;51.008;13.658;2023-03-15T21:38:10;100171.91;;;0.48;100.00
64292;BME280;50628;51.008;13.658;2023-03-15T21:43:12;100170.91;;;0.52;100.00
64292;BME280;50628;51.008;13.658;2023-03-15T21:48:14;100174.72;;;0.40;100.00
64292;BME280;50628;51.008;13.658;2023-03-15T21:53:18;100171.06;;;0.21;100.00
64292;BME280;50628;51.008;13.658;2023-03-15T21:58:20;100180.63;;;0.14;100.00
64292;BME280;50628;51.008;13.658;2023-03-15T22:03:22;100192.16;;;0.28;100.00
64292;BME280;50628;51.008;13.658;2023-03-15T22:08:26;100187.34;;;0.45;100.00
64292;BME280;50628;51.008;13.658;2023-03-15T22:13:28;100189.22;;;0.40;100.00
64292;BME280;50628;51.008;13.658;2023-03-15T22:18:30;100191.00;;;0.10;100.00
64292;BME280;50628;51.008;13.658;2023-03-15T22:23:33;100197.91;;;0.36;100.00
64292;BME280;50628;51.008;13.658;2023-03-15T22:28:35;100197.06;;;0.35;100.00
64292;BME280;50628;51.008;13.658;2023-03-15T22:33:37;100200.19;;;0.17;100.00
64292;BME280;50628;51.008;13.658;2023-03-15T22:38:40;100204.22;;;-0.04;100.00
64292;BME280;50628;51.008;13.658;2023-03-15T22:43:49;100209.50;;;-0.10;100.00
64292;BME280;50628;51.008;13.658;2023-03-15T22:48:53;100217.13;;;0.21;100.00
64292;BME280;50628;51.008;13.658;2023-03-15T22:53:56;100225.53;;;0.53;100.00
64292;BME280;50628;51.008;13.658;2023-03-15T22:58:58;100224.75;;;0.22;100.00
64292;BME280;50628;51.008;13.658;2023-03-15T23:03:59;100220.03;;;0.10;100.00
64292;BME280;50628;51.008;13.658;2023-03-15T23:09:03;100228.91;;;0.27;100.00
64292;BME280;50628;51.008;13.658;2023-03-15T23:14:05;100237.63;;;-0.09;100.00
64292;BME280;50628;51.008;13.658;2023-03-15T23:19:07;100237.28;;;0.04;100.00
64292;BME280;50628;51.008;13.658;2023-03-15T23:24:11;100235.03;;;-0.07;100.00
64292;BME280;50628;51.008;13.658;2023-03-15T23:29:16;100241.44;;;0.08;100.00
64292;BME280;50628;51.008;13.658;2023-03-15T23:34:18;100235.78;;;0.53;100.00
64292;BME280;50628;51.008;13.658;2023-03-15T23:39:24;100241.81;;;0.50;100.00
64292;BME280;50628;51.008;13.658;2023-03-15T23:44:29;100236.47;;;0.02;100.00
64292;BME280;50628;51.008;13.658;2023-03-15T23:49:31;100237.97;;;0.37;100.00
64292;BME280;50628;51.008;13.658;2023-03-15T23:54:34;100247.81;;;-0.07;100.00
64292;BME280;50628;51.008;13.658;2023-03-15T23:59:41;100242.16;;;-0.18;100.00
